x

West Santa Barbara 38 Nm West Of Santa Barbara, Ca (46054) Wave Buoy

6:50am - Mon 28th Jul 2014 All times are PDT. -7 hours from GMT.

  • Sig Wave height 3.6ft
  • Swell Direction
  • Peak Period 8s
  • Average Period 6s
  • Wind
    9mph
  • Sea Temp 64°f
  • Air Temp 64°f
  • Sea Pressure 1016.3mb
  • West Santa Barbara  38 Nm West Of Santa Barbara, Ca
  • West Santa Barbara  38 Nm West Of Santa Barbara, Ca

More Historic Weather Station data

Upgrade to MSW Pro to gain access to the past 30 days of data for over 8000 Wavebouys and Weather Stations around the globe.

Join Pro

Comparision Forecast

View Surf forecast
   
Mon 07/28 6:50am 3.5ft 8s 6s 9
mph
1016.3mb 64f 64f
5:50am 3.5ft 14s 5s 11 13 mph 1016.1mb 64f 63f
4:50am 3.5ft 8s 5s 16 18 mph 1015.7mb 64f 63f
3:50am 4ft 9s 5s 16
mph
1015.4mb 64f 63f
2:50am 4ft 8s 5s 16 18 mph 1014.8mb 64f 63f
1:50am 4ft 9s 5s 18 22 mph 1014.4mb 65f 63f
12:50am 4ft 8s 5s 22 25 mph 1014.4mb 65f 63f
Sun 07/27 11:50pm 4.5ft 4s 5s 22 25 mph 1014.2mb 65f 62f
10:50pm 3.5ft 4s 4s 20 25 mph 1014.1mb 65f 62f
9:50pm 3.5ft 8s 5s 20 25 mph 1014mb 64f 62f
8:50pm 3.5ft 8s 5s 20 22 mph 1013.7mb 64f 63f
7:50pm 3.5ft 8s 6s 18 20 mph 1013.6mb 65f 64f
6:50pm 3.5ft 8s 7s 13 16 mph 1013.7mb 66f 65f
5:50pm 3ft 8s 7s 11 13 mph 1014.4mb 66f 65f
4:50pm 3ft 8s 7s 7 11 mph 1015.4mb 67f 65f
3:50pm 3ft 8s 7s 4
mph
1016.1mb 67f 65f
2:50pm 3ft 8s 7s 2 4 mph 1016mb 66f 63f
1:50pm 3.5ft 15s 7s 2 4 mph 1016.2mb 65f 63f
12:50pm 3ft 8s 7s 4 7 mph 1016mb 65f 62f
11:50am 3.5ft 8s 7s 4 7 mph 1015.9mb 65f 61f
10:50am 3.5ft 8s 7s 4 7 mph 1016mb 64f 60f
9:50am 3.5ft 8s 7s 4 7 mph 1016.2mb 64f 60f
8:50am 3.5ft 8s 7s 7 9 mph 1015.7mb 64f 60f
7:50am 3.5ft 8s 7s 9 11 mph 1015.1mb 64f 60f
6:50am 3.5ft 8s 7s 11 16 mph 1014.3mb 64f 61f
5:50am 3.5ft 9s 7s 7 9 mph 1014.2mb 64f 61f
4:50am 4ft 9s 7s 7 9 mph 1014.3mb 64f 60f
3:50am 3.5ft 9s 7s 7 9 mph 1014.5mb 63f 60f
2:50am 4ft 9s 7s 11 13 mph 1014.3mb 63f 61f
1:50am 4ft 9s 7s 9
mph
1014.2mb 63f 60f
12:50am 3ft 8s 6s 9 11 mph 1014.2mb 63f 60f
Sat 07/26 11:50pm 3.5ft 9s 6s 11 16 mph 1014.1mb 63f 61f
10:50pm 4ft 9s 6s 13 16 mph 1013.8mb 63f 62f
9:50pm 4ft 9s 6s 11 13 mph 1013.8mb 64f 63f
8:50pm 4.5ft 10s 7s 11 13 mph 1013.5mb 64f 63f
7:50pm 5ft 10s 7s 11 13 mph 1013.3mb 64f 63f
6:50pm 4.5ft 9s 8s 11 13 mph 1013.1mb 65f 64f
5:50pm 4.5ft 10s 8s 11 13 mph 1013.1mb 65f 64f
4:50pm 4.5ft 10s 8s 7 9 mph 1013.7mb 65f 64f
3:50pm 4.5ft 9s 7s 7 9 mph 1014.2mb 65f 64f
2:50pm 4.5ft 9s 7s 7 9 mph 1014.7mb 65f 64f
1:50pm 5ft 10s 8s 4
mph
1014.9mb 64f 63f
12:50pm 4.5ft 10s 8s 2 4 mph 1015.2mb 64f 63f
11:50am 5ft 9s 8s 7
mph
1015.3mb 63f 62f
10:50am 5ft 10s 8s 4 7 mph 1015.4mb 64f 61f
9:50am 4.5ft 10s 8s 2 4 mph 1014.9mb 64f 60f
8:50am 5.5ft 10s 8s  -  2 mph 1014.5mb 64f 60f
7:50am 5ft 10s 8s  -  2 mph 1014mb 64f 59f
6:50am 5ft 10s 8s 4 7 mph 1013.6mb 63f 59f
5:50am 5ft 10s 8s 7 9 mph 1012.8mb 64f 59f
4:50am 5ft 10s 8s 4 7 mph 1012.6mb 64f 59f
3:50am 5ft 10s 8s 11 13 mph 1012.4mb 64f 59f
2:50am 5.5ft 10s 8s 9 11 mph 1012.5mb 64f 59f
1:50am 5ft 10s 7s 9 11 mph 1012.6mb 64f 59f
12:50am 5.5ft 10s 7s 11 13 mph 1012.8mb 63f 59f
Fri 07/25 11:50pm 5.5ft 10s 7s 13
mph
1012.6mb 63f 59f
10:50pm 6ft 10s 7s 13 16 mph 1012.6mb 63f 60f
9:50pm 6ft 9s 7s 11 13 mph 1012.6mb 63f 60f
8:50pm 6ft 10s 7s 11 16 mph 1011.8mb 63f 61f
7:50pm 6ft 10s 8s 11 13 mph 1011.4mb 61f 61f
6:50pm 6ft 9s 7s 13 16 mph 1011.3mb 60f 62f
5:50pm 6ft 9s 7s 11 16 mph 1011.6mb 63f 62f
4:50pm 6ft 9s 7s 11 13 mph 1011.9mb 62f 62f
3:50pm 6ft 9s 7s 11
mph
1012.2mb 62f 62f
2:50pm 6ft 8s 7s 9 11 mph 1012.6mb 62f 62f
1:50pm 6ft 9s 7s 9 11 mph 1012.9mb 62f 61f
12:50pm 6.5ft 8s 7s 9 11 mph 1012.9mb 62f 60f
11:50am 6ft 9s 7s 9 13 mph 1012.9mb 61f 59f
10:50am 6ft 9s 7s 11 13 mph 1012.5mb 57f 58f
9:50am 7ft 9s 7s 11 13 mph 1012.3mb 57f 58f
8:50am 6.5ft 10s 7s 13 18 mph 1011.9mb 57f 59f
7:50am 7ft 9s 7s 16 18 mph 1011.4mb 57f 59f
6:50am 7ft 10s 7s 13 18 mph 1011mb 57f 59f
5:50am 6.5ft 9s 6s 16 18 mph 1010.4mb 57f 59f
4:50am 6ft 9s 6s 18 22 mph 1010.3mb 57f 60f
3:50am 6ft 8s 6s 20 22 mph 1009.7mb 58f 60f
2:50am 6ft 8s 6s 20 22 mph 1009.6mb 58f 60f
1:50am 7ft 8s 6s 18 22 mph 1009.5mb 58f 60f
12:50am 7ft 8s 6s 20 25 mph 1009.7mb 56f 59f
Thu 07/24 11:50pm 7.5ft 8s 6s 22 25 mph 1009.5mb 56f 60f
10:50pm 7.5ft 8s 6s 22 27 mph 1009.5mb 56f 60f
9:50pm 7ft 8s 6s 22 27 mph 1009.5mb 56f 60f
8:50pm 8ft 8s 6s 22 27 mph 1009.1mb 57f 60f
7:50pm 7ft 8s 6s 25 29 mph 1008.7mb 57f 60f
6:50pm 7ft 8s 6s 27 31 mph 1008.6mb 57f 61f
5:50pm 6.5ft 8s 6s 27 31 mph 1008.8mb 58f 61f
4:50pm 6.5ft 7s 5s 27 34 mph 1009.1mb 57f 61f
3:50pm 6.5ft 8s 5s 27 34 mph 1009.5mb 56f 61f